Terminal Aerodrome Forecast
Issued by NWS

Home | Current Version | Previous Version | Text Only | Print | Product List | Glossary On
Versions: 1 2 3 4 5 6 7 8 9 10 11 12 13
000
FTUS46 KLOX 172300
TAFOXR
TAF
KOXR 172335Z 1800/1824 28014KT P6SM SKC
     FM180300 27008KT P6SM SKC
     FM180600 28005KT 6SM HZ SKC
     FM181300 VRB03KT 4SM BR BKN007
     FM181700 27005KT 4SM BR OVC010
     FM181900 27010KT P6SM OVC012
     FM182200 26014KT P6SM SCT015=

USA.gov is the U.S. government's official web portal to all federal, state and local government web resources and services.